LiveATC.Net - Listen to live air traffic control over the Internet!


ICAO: BGGH  IATA: GOH   Airport: Nuuk Airport
City: Nuuk
Country: Greenland   Continent: North America
BGGH METAR Weather: BGGH 021250Z 22013KT 9999 SCT020 M03/M05 Q0998
BGGH Flight Activity (FlightAware)

BGGH AFIS
Feed Status: DOWN
Last heard on: 2021-12-02 03:05:38 (0 days 10 hours 32 minutes ago)
Archive Access: BGGH AFIS

NOTICE

Unauthorized use prohibited. See LiveATC.net Terms of Service


Airport/ARTCC Code
Frequency Search
(e.g., 124.400, 128.75)
Site-wide search
 


Browse Feeds
Top 50 Feeds
HF Oceanic Feeds
Coverage Map
Bad Weather Areas

LiveATC FAQ
Offer LiveATC feed
Contact LiveATC.net
Press Inquiries

LiveATC on iPhone
LiveATC on Android

Windows Phone
Windows 8/10

LiveATC Mobile
(Mobile browser)

ATC Audio Archives
Interesting Recordings

LiveATC Forums


Home Page
About LiveATC.net
Make a Donation
Terms of Use
Privacy Policy

Canadian Air Freqs

AIRMETs/SIGMETs

FAA Airport Status
NAS Status
Arrival Demand


Server Software By:
Icecast.org
Liquidsoap